Hamnavoe — VSTY7 — position and weather

sailwx.info

Track history (hours):
 
Tides and Currents Weather Stations Pressure Air Temp Water Temp Dewpoint Dewpoint Depression Visibility Wind Speed Wind Dir Waves Ship Positions

Hamnavoe

Operator: NorthLink Orkey & Shetland Ferries Ltd

Last reported at 2017-Dec-11 16:49 UTC. Time now 2017-Dec-14 15:05 UTC.
Position N 58°57' W 003°18'.

Length 112 m; draft 4.2 m.

Type: Ship. MMSI: 235449000.

Date/timePositionNaut miles runAvg speedWind from/ knotsBaromVisibWave heightAir tempDewpointWater temp
2017-Dec-11 16:49N 58°57' W 003°18'1 0.1
2017-Dec-11 10:10N 58°57' W 003°18'16 6.2
2017-Dec-11 07:35N 58°43' W 003°29'1615.1
2017-Dec-11 06:33N 58°57' W 003°17'1 9.1
2017-Dec-11 06:30N 58°57' W 003°18'0 0.0
2017-Dec-10 20:25N 58°58' W 003°18'1 0.2
2017-Dec-10 16:43N 58°57' W 003°18'1 0.2
2017-Dec-10 13:40N 58°57' W 003°18'213.4
2017-Dec-10 13:30N 58°56' W 003°15'713.5
2017-Dec-10 13:00N 58°50' W 003°10'814.3
2017-Dec-10 12:28N 58°43' W 003°19'10 4.6
2017-Dec-10 10:24N 58°37' W 003°32'717.0
2017-Dec-10 10:00N 58°43' W 003°30'1514.9
2017-Dec-10 09:01N 58°57' W 003°19'017.8
2017-Dec-10 09:00N 58°57' W 003°18'1 0.1
2017-Dec-09 20:47N 58°58' W 003°18'512.3
2017-Dec-09 20:23N 58°55' W 003°26'14 5.9
2017-Dec-09 18:02N 58°41' W 003°32'716.6
2017-Dec-09 17:36N 58°48' W 003°29'616.1
2017-Dec-09 17:13N 58°54' W 003°27'515.0
2017-Dec-09 16:52N 58°57' W 003°18'1 0.0
2017-Dec-08 09:08N 58°57' W 003°18'212.7
2017-Dec-08 08:58N 58°56' W 003°15'510.4
2017-Dec-08 08:27N 58°55' W 003°05'1 2.5
2017-Dec-08 08:00N 58°55' W 003°03'1 1.8
2017-Dec-08 07:21N 58°56' W 003°01'1 4.4
2017-Dec-08 07:00N 58°55' W 003°03'1 2.0
2017-Dec-08 06:30N 58°55' W 003°01'1 2.5
2017-Dec-08 06:00N 58°55' W 003°04'1 1.7
2017-Dec-08 05:22N 58°55' W 003°02'0 0.6
2017-Dec-08 05:00N 58°55' W 003°02'1 1.9
2017-Dec-08 04:25N 58°55' W 003°04'2 3.9
2017-Dec-08 04:00N 58°56' W 003°01'1 2.2
2017-Dec-08 03:21N 58°55' W 003°04'2 5.3
2017-Dec-08 03:00N 58°56' W 003°01'3 6.1
2017-Dec-08 02:30N 58°54' W 003°06'3 5.2
2017-Dec-08 02:00N 58°56' W 003°02'2 2.7
2017-Dec-08 01:26N 58°55' W 003°04'2 3.6
2017-Dec-08 01:00N 58°56' W 003°02'1 2.3
2017-Dec-08 00:26N 58°55' W 003°04'1 2.8
2017-Dec-08 00:00N 58°55' W 003°02'0 0.8
2017-Dec-07 23:29N 58°55' W 003°02'1 2.5
2017-Dec-07 23:00N 58°55' W 003°04'2 4.3
2017-Dec-07 22:30N 58°56' W 003°00'0 0.3
2017-Dec-07 21:42N 58°56' W 003°01'1 4.4
2017-Dec-07 21:30N 58°55' W 003°02'1 1.5
2017-Dec-07 20:53N 58°55' W 003°01'2 4.9
2017-Dec-07 20:30N 58°55' W 003°04'2 3.0
2017-Dec-07 20:00N 58°55' W 003°01'2 3.8
2017-Dec-07 19:30N 58°54' W 003°04'2 3.9
2017-Dec-07 19:00N 58°55' W 003°01'3 5.1
2017-Dec-07 18:30N 58°54' W 003°06'2 4.7
2017-Dec-07 18:00N 58°55' W 003°02'1 1.7
2017-Dec-07 17:30N 58°55' W 003°03'0 0.1
2017-Dec-07 17:00N 58°55' W 003°03'1 1.0
2017-Dec-07 16:27N 58°55' W 003°02'1 1.6
2017-Dec-07 16:00N 58°55' W 003°03'0 0.8
2017-Dec-07 15:30N 58°55' W 003°02'2 3.8
2017-Dec-07 15:00N 58°54' W 003°06'2 3.7
2017-Dec-07 14:30N 58°55' W 003°03'1 0.9
2017-Dec-07 13:30N 58°55' W 003°01'3 6.9
2017-Dec-07 13:00N 58°54' W 003°07'6 9.8
2017-Dec-07 12:26N 58°57' W 003°17'2 2.7
2017-Dec-07 11:52N 58°56' W 003°15'613.7
2017-Dec-07 11:24N 58°52' W 003°05'1215.9
2017-Dec-07 10:39N 58°43' W 003°18'419.6
2017-Dec-07 10:28N 58°41' W 003°24'6 2.9
2017-Dec-07 08:20N 58°39' W 003°36'411.3
2017-Dec-07 08:01N 58°42' W 003°39'912.5
2017-Dec-07 07:15N 58°51' W 003°31'613.3
2017-Dec-07 06:50N 58°55' W 003°25'412.8
2017-Dec-07 06:30N 58°57' W 003°17'1 0.1
2017-Dec-06 20:33N 58°58' W 003°18'  
2017-Dec-04 10:10N 58°57' W 003°17'18 7.4
2017-Dec-04 07:45N 58°40' W 003°30'616.9
2017-Dec-04 07:25N 58°46' W 003°29'918.1
2017-Dec-04 06:57N 58°54' W 003°26'512.2
2017-Dec-04 06:30N 58°57' W 003°17'0 0.0
2017-Dec-03 20:37N 58°58' W 003°18'213.0
2017-Dec-03 20:26N 58°56' W 003°15'715.9
2017-Dec-03 20:00N 58°49' W 003°10'816.4
2017-Dec-03 19:30N 58°43' W 003°19'6 3.6
2017-Dec-03 17:52N 58°43' W 003°30'616.9
2017-Dec-03 17:30N 58°49' W 003°28'914.0
2017-Dec-03 16:52N 58°57' W 003°19'1 0.3
2017-Dec-03 13:24N 58°58' W 003°18'511.3
2017-Dec-03 13:00N 58°55' W 003°26'16 5.8
2017-Dec-03 10:17N 58°40' W 003°31'1914.3
2017-Dec-03 08:59N 58°57' W 003°17'1 0.0
2017-Dec-02 20:36N 58°57' W 003°18'214.4
2017-Dec-02 20:27N 58°56' W 003°15'715.5
2017-Dec-02 20:00N 58°50' W 003°10'714.8
2017-Dec-02 19:30N 58°44' W 003°19'7 5.3
2017-Dec-02 18:06N 58°40' W 003°31'416.5
2017-Dec-02 17:53N 58°44' W 003°31'1414.1
2017-Dec-02 16:53N 58°57' W 003°19'1 0.4
2017-Dec-02 13:44N 58°58' W 003°18'0 0.5
2017-Dec-02 13:24N 58°58' W 003°18'512.0
2017-Dec-02 13:00N 58°55' W 003°26'15 5.6
2017-Dec-02 10:14N 58°40' W 003°30'417.0
2017-Dec-02 10:00N 58°44' W 003°29'1216.7
2017-Dec-02 09:19N 58°55' W 003°26'514.7
2017-Dec-02 09:00N 58°57' W 003°17'1 0.1
2017-Dec-01 20:27N 58°57' W 003°18'613.2
2017-Dec-01 20:00N 58°54' W 003°27'1813.1
2017-Dec-01 18:39N 58°37' W 003°32'0 0.0
2017-Dec-01 18:30N 58°37' W 003°32'4 7.1
2017-Dec-01 17:53N 58°41' W 003°31'817.8
2017-Dec-01 17:27N 58°49' W 003°29'916.1
2017-Dec-01 16:53N 58°57' W 003°21'  
Track history (hours):
 
Tides and Currents Weather Stations Pressure Air Temp Water Temp Dewpoint Dewpoint Depression Visibility Wind Speed Wind Dir Waves Ship Positions

Hamnavoe

Operator: NorthLink Orkey & Shetland Ferries Ltd

Last reported at 2017-Dec-11 16:49 UTC. Time now 2017-Dec-14 15:05 UTC.
Position N 58°57' W 003°18'.

Length 112 m; draft 4.2 m.

Type: Ship. MMSI: 235449000.

Date/timePositionNaut miles runAvg speedWind from/ knotsBaromVisibWave heightAir tempDewpointWater temp
2017-Dec-11 16:49N 58°57' W 003°18'1 0.1
2017-Dec-11 10:10N 58°57' W 003°18'16 6.2
2017-Dec-11 07:35N 58°43' W 003°29'1615.1
2017-Dec-11 06:33N 58°57' W 003°17'1 9.1
2017-Dec-11 06:30N 58°57' W 003°18'0 0.0
2017-Dec-10 20:25N 58°58' W 003°18'1 0.2
2017-Dec-10 16:43N 58°57' W 003°18'1 0.2
2017-Dec-10 13:40N 58°57' W 003°18'213.4
2017-Dec-10 13:30N 58°56' W 003°15'713.5
2017-Dec-10 13:00N 58°50' W 003°10'814.3
2017-Dec-10 12:28N 58°43' W 003°19'10 4.6
2017-Dec-10 10:24N 58°37' W 003°32'717.0
2017-Dec-10 10:00N 58°43' W 003°30'1514.9
2017-Dec-10 09:01N 58°57' W 003°19'017.8
2017-Dec-10 09:00N 58°57' W 003°18'1 0.1
2017-Dec-09 20:47N 58°58' W 003°18'512.3
2017-Dec-09 20:23N 58°55' W 003°26'14 5.9
2017-Dec-09 18:02N 58°41' W 003°32'716.6
2017-Dec-09 17:36N 58°48' W 003°29'616.1
2017-Dec-09 17:13N 58°54' W 003°27'515.0
2017-Dec-09 16:52N 58°57' W 003°18'1 0.0
2017-Dec-08 09:08N 58°57' W 003°18'212.7
2017-Dec-08 08:58N 58°56' W 003°15'510.4
2017-Dec-08 08:27N 58°55' W 003°05'1 2.5
2017-Dec-08 08:00N 58°55' W 003°03'1 1.8
2017-Dec-08 07:21N 58°56' W 003°01'1 4.4
2017-Dec-08 07:00N 58°55' W 003°03'1 2.0
2017-Dec-08 06:30N 58°55' W 003°01'1 2.5
2017-Dec-08 06:00N 58°55' W 003°04'1 1.7
2017-Dec-08 05:22N 58°55' W 003°02'0 0.6
2017-Dec-08 05:00N 58°55' W 003°02'1 1.9
2017-Dec-08 04:25N 58°55' W 003°04'2 3.9
2017-Dec-08 04:00N 58°56' W 003°01'1 2.2
2017-Dec-08 03:21N 58°55' W 003°04'2 5.3
2017-Dec-08 03:00N 58°56' W 003°01'3 6.1
2017-Dec-08 02:30N 58°54' W 003°06'3 5.2
2017-Dec-08 02:00N 58°56' W 003°02'2 2.7
2017-Dec-08 01:26N 58°55' W 003°04'2 3.6
2017-Dec-08 01:00N 58°56' W 003°02'1 2.3
2017-Dec-08 00:26N 58°55' W 003°04'1 2.8
2017-Dec-08 00:00N 58°55' W 003°02'0 0.8
2017-Dec-07 23:29N 58°55' W 003°02'1 2.5
2017-Dec-07 23:00N 58°55' W 003°04'2 4.3
2017-Dec-07 22:30N 58°56' W 003°00'0 0.3
2017-Dec-07 21:42N 58°56' W 003°01'1 4.4
2017-Dec-07 21:30N 58°55' W 003°02'1 1.5
2017-Dec-07 20:53N 58°55' W 003°01'2 4.9
2017-Dec-07 20:30N 58°55' W 003°04'2 3.0
2017-Dec-07 20:00N 58°55' W 003°01'2 3.8
2017-Dec-07 19:30N 58°54' W 003°04'2 3.9
2017-Dec-07 19:00N 58°55' W 003°01'3 5.1
2017-Dec-07 18:30N 58°54' W 003°06'2 4.7
2017-Dec-07 18:00N 58°55' W 003°02'1 1.7
2017-Dec-07 17:30N 58°55' W 003°03'0 0.1
2017-Dec-07 17:00N 58°55' W 003°03'1 1.0
2017-Dec-07 16:27N 58°55' W 003°02'1 1.6
2017-Dec-07 16:00N 58°55' W 003°03'0 0.8
2017-Dec-07 15:30N 58°55' W 003°02'2 3.8
2017-Dec-07 15:00N 58°54' W 003°06'2 3.7
2017-Dec-07 14:30N 58°55' W 003°03'1 0.9
2017-Dec-07 13:30N 58°55' W 003°01'3 6.9
2017-Dec-07 13:00N 58°54' W 003°07'6 9.8
2017-Dec-07 12:26N 58°57' W 003°17'2 2.7
2017-Dec-07 11:52N 58°56' W 003°15'613.7
2017-Dec-07 11:24N 58°52' W 003°05'1215.9
2017-Dec-07 10:39N 58°43' W 003°18'419.6
2017-Dec-07 10:28N 58°41' W 003°24'6 2.9
2017-Dec-07 08:20N 58°39' W 003°36'411.3
2017-Dec-07 08:01N 58°42' W 003°39'912.5
2017-Dec-07 07:15N 58°51' W 003°31'613.3
2017-Dec-07 06:50N 58°55' W 003°25'412.8
2017-Dec-07 06:30N 58°57' W 003°17'1 0.1
2017-Dec-06 20:33N 58°58' W 003°18'  
2017-Dec-04 10:10N 58°57' W 003°17'18 7.4
2017-Dec-04 07:45N 58°40' W 003°30'616.9
2017-Dec-04 07:25N 58°46' W 003°29'918.1
2017-Dec-04 06:57N 58°54' W 003°26'512.2
2017-Dec-04 06:30N 58°57' W 003°17'0 0.0
2017-Dec-03 20:37N 58°58' W 003°18'213.0
2017-Dec-03 20:26N 58°56' W 003°15'715.9
2017-Dec-03 20:00N 58°49' W 003°10'816.4
2017-Dec-03 19:30N 58°43' W 003°19'6 3.6
2017-Dec-03 17:52N 58°43' W 003°30'616.9
2017-Dec-03 17:30N 58°49' W 003°28'914.0
2017-Dec-03 16:52N 58°57' W 003°19'1 0.3
2017-Dec-03 13:24N 58°58' W 003°18'511.3
2017-Dec-03 13:00N 58°55' W 003°26'16 5.8
2017-Dec-03 10:17N 58°40' W 003°31'1914.3
2017-Dec-03 08:59N 58°57' W 003°17'1 0.0
2017-Dec-02 20:36N 58°57' W 003°18'214.4
2017-Dec-02 20:27N 58°56' W 003°15'715.5
2017-Dec-02 20:00N 58°50' W 003°10'714.8
2017-Dec-02 19:30N 58°44' W 003°19'7 5.3
2017-Dec-02 18:06N 58°40' W 003°31'416.5
2017-Dec-02 17:53N 58°44' W 003°31'1414.1
2017-Dec-02 16:53N 58°57' W 003°19'1 0.4
2017-Dec-02 13:44N 58°58' W 003°18'0 0.5
2017-Dec-02 13:24N 58°58' W 003°18'512.0
2017-Dec-02 13:00N 58°55' W 003°26'15 5.6
2017-Dec-02 10:14N 58°40' W 003°30'417.0
2017-Dec-02 10:00N 58°44' W 003°29'1216.7
2017-Dec-02 09:19N 58°55' W 003°26'514.7
2017-Dec-02 09:00N 58°57' W 003°17'1 0.1
2017-Dec-01 20:27N 58°57' W 003°18'613.2
2017-Dec-01 20:00N 58°54' W 003°27'1813.1
2017-Dec-01 18:39N 58°37' W 003°32'0 0.0
2017-Dec-01 18:30N 58°37' W 003°32'4 7.1
2017-Dec-01 17:53N 58°41' W 003°31'817.8
2017-Dec-01 17:27N 58°49' W 003°29'916.1
2017-Dec-01 16:53N 58°57' W 003°21'  

Dump ship's entire track history